Terminal Aerodrome Forecast
Issued by NWS Detroit/Pontiac, MI

Home | Current Version | Previous Version | Text Only | Print | Product List | Glossary On
Versions: 1 2 3 4 5 6 7 8 9 10 11 12 13 14 15 16 17 18 19 20 21 22 23 24 25 26 27
000
FTUS43 KDTX 032337
TAFDTW
TAF
KDTW 032337Z 0400/0506 25015G25KT P6SM OVC015
     FM040500 30013KT P6SM BKN025
     FM041000 24007KT P6SM BKN025 OVC150
     FM041400 28013G20KT P6SM BKN035
     FM042000 28013KT P6SM SCT035 BKN200
     FM050100 28007KT P6SM BKN035=

USA.gov is the U.S. government's official web portal to all federal, state and local government web resources and services.